createdAt,value
2016-04-13T00:00:28.457Z,24.01
2016-04-13T00:01:28.491Z,24.01
2016-04-13T00:02:28.555Z,24.01
2016-04-13T00:03:28.543Z,23.91
2016-04-13T00:04:28.561Z,23.91
2016-04-13T00:05:28.595Z,24.1
2016-04-13T00:06:28.644Z,24.1
2016-04-13T00:07:28.646Z,23.81
2016-04-13T00:08:28.701Z,24.19
2016-04-13T00:09:28.735Z,23.81
2016-04-13T00:10:28.753Z,24.01
2016-04-13T00:11:28.787Z,23.81
2016-04-13T00:12:28.806Z,23.91
2016-04-13T00:13:28.855Z,23.81
2016-04-13T00:14:28.873Z,24.19
2016-04-13T00:15:28.876Z,23.81
2016-04-13T00:16:28.910Z,23.91
2016-04-13T00:17:28.928Z,23.91
2016-04-13T00:18:28.978Z,23.61
2016-04-13T00:19:28.980Z,23.81
2016-04-13T00:20:29.015Z,23.71
2016-04-13T00:21:29.050Z,24.29
2016-04-13T00:22:29.066Z,23.81
2016-04-13T00:23:29.102Z,23.81
2016-04-13T00:24:29.166Z,23.81
2016-04-13T00:25:29.185Z,23.81
2016-04-13T00:26:29.188Z,23.71
2016-04-13T00:27:29.221Z,23.81
2016-04-13T00:28:29.240Z,23.81
2016-04-13T00:29:29.258Z,23.52
2016-04-13T00:30:29.291Z,23.61
2016-04-13T00:31:29.326Z,24.01
2016-04-13T00:32:29.344Z,23.81
2016-04-13T00:33:29.378Z,24.1
2016-04-13T00:34:29.396Z,23.81
2016-04-13T00:35:29.430Z,24.01
2016-04-13T00:36:29.464Z,23.81
2016-04-13T00:37:29.498Z,23.81
2016-04-13T00:38:29.516Z,23.52
2016-04-13T00:39:29.550Z,23.52
2016-04-13T00:40:29.585Z,23.61
2016-04-13T00:41:29.603Z,23.52
2016-04-13T00:42:29.684Z,23.52
2016-04-13T00:43:29.655Z,23.81
2016-04-13T00:44:29.673Z,23.61
2016-04-13T00:45:29.707Z,23.71
2016-04-13T00:46:29.742Z,23.52
2016-04-13T00:47:29.759Z,23.61
2016-04-13T00:48:29.809Z,23.52
2016-04-13T00:49:29.859Z,23.81
2016-04-13T00:50:29.845Z,24.1
2016-04-13T00:51:29.879Z,23.81
2016-04-13T00:52:29.897Z,23.61
2016-04-13T00:53:29.932Z,23.91
2016-04-13T00:54:29.950Z,23.61
2016-04-13T00:55:29.999Z,23.81
2016-04-13T00:56:30.002Z,23.81
2016-04-13T00:57:30.036Z,23.42
2016-04-13T00:58:30.085Z,23.61
2016-04-13T00:59:30.088Z,24.01
2016-04-13T01:00:30.122Z,23.61
2016-04-13T01:01:30.156Z,23.71
2016-04-13T01:02:30.174Z,23.71
2016-04-13T01:03:30.209Z,23.61
2016-04-13T01:04:30.273Z,23.52
2016-04-13T01:05:30.260Z,23.71
2016-04-13T01:06:30.279Z,23.71
2016-04-13T01:07:30.313Z,23.71
2016-04-13T01:08:30.348Z,23.71
2016-04-13T01:09:30.366Z,23.71
2016-04-13T01:10:30.399Z,23.81
2016-04-13T01:11:30.417Z,23.71
2016-04-13T01:12:30.487Z,23.71
2016-04-13T01:13:30.489Z,23.71
2016-04-13T01:14:30.523Z,23.81
2016-04-13T01:15:30.526Z,23.81
2016-04-13T01:16:30.560Z,23.81
2016-04-13T01:17:30.624Z,23.81
2016-04-13T01:18:30.612Z,23.81
2016-04-13T01:19:30.677Z,23.71
2016-04-13T01:20:30.665Z,23.71
2016-04-13T01:21:30.699Z,23.52
2016-04-13T01:22:30.720Z,23.81
2016-04-13T01:23:30.755Z,23.52
2016-04-13T01:24:30.789Z,23.71
2016-04-13T01:25:30.822Z,23.71
2016-04-13T01:26:30.841Z,23.71
2016-04-13T01:27:30.891Z,23.71
2016-04-13T01:28:30.908Z,23.71
2016-04-13T01:29:30.911Z,23.61
2016-04-13T01:30:30.961Z,23.71
2016-04-13T01:31:30.979Z,23.71
2016-04-13T01:32:31.013Z,24.01
2016-04-13T01:33:31.032Z,23.61
2016-04-13T01:34:31.049Z,23.61
2016-04-13T01:35:31.084Z,23.61
2016-04-13T01:36:31.101Z,23.81
2016-04-13T01:37:31.151Z,23.71
2016-04-13T01:38:31.185Z,23.81
2016-04-13T01:39:31.204Z,23.71
2016-04-13T01:40:31.238Z,23.61
2016-04-13T01:41:31.256Z,23.71
2016-04-13T01:42:31.306Z,23.81
2016-04-13T01:43:31.309Z,23.52
2016-04-13T01:44:31.327Z,23.71
2016-04-13T01:45:31.361Z,23.91
2016-04-13T01:46:31.395Z,23.71
2016-04-13T01:47:31.413Z,24.01
2016-04-13T01:48:31.462Z,23.52
2016-04-13T01:49:31.481Z,24.01
2016-04-13T01:50:31.499Z,23.61
2016-04-13T01:51:31.548Z,23.52
2016-04-13T01:52:31.598Z,24.1
2016-04-13T01:53:31.569Z,23.61
2016-04-13T01:54:31.614Z,23.61
2016-04-13T01:55:31.691Z,23.71
2016-04-13T01:56:31.752Z,23.52
2016-04-13T01:57:31.830Z,23.61
2016-04-13T01:58:31.937Z,23.52
2016-04-13T01:59:31.961Z,23.61
2016-04-13T02:00:32.010Z,24.01
2016-04-13T02:01:32.060Z,23.81
2016-04-13T02:02:32.125Z,23.81
2016-04-13T02:03:32.142Z,24.01
2016-04-13T02:04:32.173Z,23.81
2016-04-13T02:05:32.198Z,23.71
2016-04-13T02:06:32.236Z,23.61
2016-04-13T02:07:32.276Z,23.81
2016-04-13T02:08:32.316Z,23.81
2016-04-13T02:09:32.337Z,23.81
2016-04-13T02:10:32.374Z,23.53
2016-04-13T02:11:32.394Z,24.01
2016-04-13T02:12:32.429Z,24.01
2016-04-13T02:13:32.467Z,23.61
2016-04-13T02:14:32.501Z,23.91
2016-04-13T02:15:32.521Z,23.71
2016-04-13T02:16:32.571Z,23.81
2016-04-13T02:17:32.606Z,23.61
2016-04-13T02:18:32.593Z,23.81
2016-04-13T02:19:32.627Z,23.81
2016-04-13T02:20:32.663Z,23.52
2016-04-13T02:21:32.681Z,23.81
2016-04-13T02:22:32.731Z,23.81
2016-04-13T02:23:32.734Z,24.01
2016-04-13T02:24:32.768Z,24.1
2016-04-13T02:25:32.803Z,23.81
2016-04-13T02:26:32.851Z,23.71
2016-04-13T02:27:32.854Z,23.71
2016-04-13T02:28:32.873Z,23.52
2016-04-13T02:29:32.907Z,23.91
2016-04-13T02:30:32.942Z,23.52
2016-04-13T02:31:32.975Z,23.91
2016-04-13T02:32:32.993Z,24.1
2016-04-13T02:33:33.028Z,23.52
2016-04-13T02:34:33.045Z,23.81
2016-04-13T02:35:33.080Z,23.71
2016-04-13T02:36:33.098Z,23.91
2016-04-13T02:37:33.131Z,23.81
2016-04-13T02:38:33.197Z,23.61
2016-04-13T02:39:33.184Z,23.61
2016-04-13T02:40:33.249Z,23.71
2016-04-13T02:41:33.252Z,23.81
2016-04-13T02:42:33.255Z,23.61
2016-04-13T02:43:33.288Z,23.91
2016-04-13T02:44:33.321Z,23.81
2016-04-13T02:45:33.371Z,23.52
2016-04-13T02:46:33.375Z,23.81
2016-04-13T02:47:33.408Z,23.81
2016-04-13T02:48:33.443Z,23.61
2016-04-13T02:49:33.476Z,23.81
2016-04-13T02:50:33.495Z,23.81
2016-04-13T02:51:33.544Z,23.61
2016-04-13T02:52:33.546Z,23.91
2016-04-13T02:53:33.565Z,23.71
2016-04-13T02:54:33.614Z,23.81
2016-04-13T02:55:33.633Z,23.61
2016-04-13T02:56:33.651Z,23.61
2016-04-13T02:57:33.669Z,23.71
2016-04-13T02:58:33.703Z,23.61
2016-04-13T02:59:33.737Z,23.81
2016-04-13T03:00:33.772Z,23.81
2016-04-13T03:01:33.806Z,23.52
2016-04-13T03:02:33.823Z,23.61
2016-04-13T03:03:33.842Z,23.71
2016-04-13T03:04:33.876Z,23.71
2016-04-13T03:05:33.895Z,23.71
2016-04-13T03:06:33.959Z,23.61
2016-04-13T03:07:33.962Z,23.61
2016-04-13T03:08:33.980Z,23.71
2016-04-13T03:09:34.030Z,23.81
2016-04-13T03:10:34.033Z,23.81
2016-04-13T03:11:34.066Z,23.91
2016-04-13T03:12:34.100Z,23.81
2016-04-13T03:13:34.118Z,23.61
2016-04-13T03:14:34.185Z,24.1
2016-04-13T03:15:34.188Z,23.52
2016-04-13T03:16:34.205Z,23.52
2016-04-13T03:17:34.255Z,23.52
2016-04-13T03:18:34.257Z,23.71
2016-04-13T03:19:34.291Z,23.61
2016-04-13T03:20:34.326Z,23.81
2016-04-13T03:21:34.360Z,23.61
2016-04-13T03:22:34.362Z,23.81
2016-04-13T03:23:34.395Z,23.81
2016-04-13T03:24:34.429Z,23.52
2016-04-13T03:25:34.448Z,23.81
2016-04-13T03:26:34.481Z,23.91
2016-04-13T03:27:34.547Z,23.81
2016-04-13T03:28:34.534Z,23.71
2016-04-13T03:29:34.553Z,23.52
2016-04-13T03:30:34.603Z,23.61
2016-04-13T03:31:34.636Z,23.71
2016-04-13T03:32:34.639Z,23.81
2016-04-13T03:33:34.704Z,24.01
2016-04-13T03:34:34.706Z,23.91
2016-04-13T03:35:34.725Z,23.71
2016-04-13T03:36:34.884Z,23.81
2016-04-13T03:37:34.792Z,23.71
2016-04-13T03:38:34.811Z,24.01
2016-04-13T03:39:34.845Z,23.81
2016-04-13T03:40:34.868Z,23.61
2016-04-13T03:41:34.886Z,23.81
2016-04-13T03:42:34.935Z,23.91
2016-04-13T03:43:34.939Z,23.91
2016-04-13T03:44:34.973Z,23.91
2016-04-13T03:45:35.007Z,23.81
2016-04-13T03:46:35.024Z,24.01
2016-04-13T03:47:35.059Z,23.81
2016-04-13T03:48:35.124Z,23.91
2016-04-13T03:49:35.111Z,23.81
2016-04-13T03:50:35.145Z,23.91
2016-04-13T03:51:35.304Z,24.1
2016-04-13T03:52:35.197Z,23.91
2016-04-13T03:53:35.231Z,23.91
2016-04-13T03:54:35.250Z,23.91
2016-04-13T03:55:35.284Z,23.81
2016-04-13T03:56:35.301Z,23.91
2016-04-13T03:57:35.336Z,24.01
2016-04-13T03:58:35.386Z,24.19
2016-04-13T03:59:35.389Z,23.91
2016-04-13T04:00:35.406Z,24.01
2016-04-13T04:01:35.456Z,24.01
2016-04-13T04:02:35.474Z,24.1
2016-04-13T04:03:35.508Z,24.1
2016-04-13T04:04:35.542Z,23.91
2016-04-13T04:05:35.575Z,23.81
2016-04-13T04:06:35.610Z,23.91
2016-04-13T04:07:35.628Z,24.1
2016-04-13T04:08:35.631Z,24.19
2016-04-13T04:09:35.665Z,23.91
2016-04-13T04:10:35.714Z,23.81
2016-04-13T04:11:35.717Z,24.01
2016-04-13T04:12:35.783Z,23.91
2016-04-13T04:13:35.770Z,23.91
2016-04-13T04:14:35.819Z,23.91
2016-04-13T04:15:35.838Z,24.19
2016-04-13T04:16:35.855Z,24.19
2016-04-13T04:17:35.905Z,23.91
2016-04-13T04:18:35.924Z,23.91
2016-04-13T04:19:35.942Z,24.01
2016-04-13T04:20:35.976Z,24.01
2016-04-13T04:21:36.025Z,24.01
2016-04-13T04:22:36.012Z,23.91
2016-04-13T04:23:36.046Z,24.1
2016-04-13T04:24:36.096Z,24.1
2016-04-13T04:25:36.145Z,24.1
2016-04-13T04:26:36.132Z,24.1
2016-04-13T04:27:36.182Z,24.19
2016-04-13T04:28:36.185Z,24.1
2016-04-13T04:29:36.234Z,24.01
2016-04-13T04:30:36.253Z,24.1
2016-04-13T04:31:36.271Z,24.01
2016-04-13T04:32:36.306Z,24.1
2016-04-13T04:33:36.339Z,24.01
2016-04-13T04:34:36.358Z,23.91
2016-04-13T04:35:36.391Z,23.91
2016-04-13T04:36:36.550Z,24.01
2016-04-13T04:37:36.444Z,23.91
2016-04-13T04:38:36.461Z,24.1
2016-04-13T04:39:36.480Z,23.91
2016-04-13T04:40:36.514Z,24.1
2016-04-13T04:41:36.548Z,24.19
2016-04-13T04:42:36.583Z,24.19
2016-04-13T04:43:36.616Z,23.91
2016-04-13T04:44:36.635Z,23.91
2016-04-13T04:45:36.652Z,24.01
2016-04-13T04:46:36.686Z,24.01
2016-04-13T04:47:36.704Z,23.91
2016-04-13T04:48:36.738Z,23.81
2016-04-13T04:49:36.773Z,24.01
2016-04-13T04:50:36.807Z,24.1
2016-04-13T04:51:36.871Z,24.01
2016-04-13T04:52:36.124Z,23.91
2016-04-13T04:53:36.876Z,23.91
2016-04-13T04:54:36.911Z,23.91
2016-04-13T04:55:36.929Z,24.01
2016-04-13T04:56:36.963Z,23.81
2016-04-13T04:57:36.998Z,23.91
2016-04-13T04:58:37.016Z,24.01
2016-04-13T04:59:37.034Z,24.1
2016-04-13T05:00:37.084Z,24.01
2016-04-13T05:01:37.320Z,23.91
2016-04-13T05:02:37.308Z,24.01
2016-04-13T05:03:37.451Z,23.91
2016-04-13T05:04:37.469Z,24.1
2016-04-13T05:05:37.456Z,23.81
2016-04-13T05:06:37.459Z,23.91
2016-04-13T05:07:37.477Z,23.81
2016-04-13T05:08:37.402Z,23.91
2016-04-13T05:09:37.405Z,24.1
2016-04-13T05:10:37.470Z,24.1
2016-04-13T05:11:37.472Z,24.1
2016-04-13T05:12:37.475Z,23.81
2016-04-13T05:13:37.508Z,23.61
2016-04-13T05:14:37.527Z,23.81
2016-04-13T05:15:37.498Z,23.81
2016-04-13T05:16:37.516Z,24.01
2016-04-13T05:17:37.535Z,23.91
2016-04-13T05:18:37.569Z,23.91
2016-04-13T05:19:37.588Z,23.81
2016-04-13T05:20:37.606Z,23.81
2016-04-13T05:21:37.641Z,23.81
2016-04-13T05:22:37.673Z,23.91
2016-04-13T05:23:37.707Z,23.82
2016-04-13T05:24:37.570Z,23.81
2016-04-13T05:25:37.760Z,23.81
2016-04-13T05:26:37.779Z,23.81
2016-04-13T05:27:37.828Z,23.81
2016-04-13T05:28:37.893Z,23.81
2016-04-13T05:29:37.881Z,23.91
2016-04-13T05:30:37.898Z,23.71
2016-04-13T05:31:37.932Z,23.52
2016-04-13T05:32:37.950Z,23.91
2016-04-13T05:33:37.985Z,23.81
2016-04-13T05:34:38.003Z,24.11
2016-04-13T05:35:38.053Z,23.91
2016-04-13T05:36:38.070Z,24.19
2016-04-13T05:37:38.105Z,23.91
2016-04-13T05:38:38.138Z,24.01
2016-04-13T05:39:38.158Z,23.91
2016-04-13T05:40:38.175Z,24.01
2016-04-13T05:41:38.209Z,23.91
2016-04-13T05:42:38.227Z,24.01
2016-04-13T05:43:38.246Z,23.91
2016-04-13T05:44:38.280Z,24.19
2016-04-13T05:45:38.313Z,24.01
2016-04-13T05:46:38.332Z,23.91
2016-04-13T05:47:38.366Z,23.91
2016-04-13T05:48:38.399Z,24.19
2016-04-13T05:49:38.418Z,23.91
2016-04-13T05:50:38.452Z,23.91
2016-04-13T05:51:38.485Z,23.91
2016-04-13T05:52:38.551Z,24.01
2016-04-13T05:53:38.539Z,23.91
2016-04-13T05:54:38.557Z,24.01
2016-04-13T05:55:38.590Z,24.19
2016-04-13T05:56:38.624Z,24.19
2016-04-13T05:57:38.674Z,24.19
2016-04-13T05:58:38.662Z,24.1
2016-04-13T05:59:38.695Z,24.01
2016-04-13T06:00:38.714Z,24.01
2016-04-13T06:01:38.779Z,23.91
2016-04-13T06:02:38.812Z,23.91
2016-04-13T06:03:38.800Z,23.91
2016-04-13T06:04:38.833Z,24.01
2016-04-13T06:05:38.853Z,24.01
2016-04-13T06:06:38.886Z,24.01
2016-04-13T06:07:38.920Z,24.01
2016-04-13T06:08:38.939Z,23.91
2016-04-13T06:09:38.972Z,23.91
2016-04-13T06:10:39.006Z,24.01
2016-04-13T06:11:39.025Z,24.01
2016-04-13T06:12:39.059Z,24.01
2016-04-13T06:13:39.108Z,24.01
2016-04-13T06:14:39.110Z,23.91
2016-04-13T06:15:39.129Z,24.01
2016-04-13T06:16:39.163Z,24.1
2016-04-13T06:17:39.196Z,23.91
2016-04-13T06:18:39.058Z,24.01
2016-04-13T06:19:39.249Z,24.02
2016-04-13T06:20:39.283Z,23.91
2016-04-13T06:21:39.301Z,24.01
2016-04-13T06:22:39.336Z,24.01
2016-04-13T06:23:39.354Z,24.01
2016-04-13T06:24:39.387Z,24.01
2016-04-13T06:25:39.421Z,24.01
2016-04-13T06:26:39.455Z,23.91
2016-04-13T06:27:39.490Z,23.81
2016-04-13T06:28:39.492Z,23.81
2016-04-13T06:29:39.526Z,23.91
2016-04-13T06:30:39.560Z,23.81
2016-04-13T06:31:39.578Z,24.19
2016-04-13T06:32:39.612Z,24.19
2016-04-13T06:33:39.630Z,24.19
2016-04-13T06:34:39.664Z,24.1
2016-04-13T06:35:39.698Z,24.01
2016-04-13T06:36:39.716Z,24.1
2016-04-13T06:37:39.782Z,24.19
2016-04-13T06:38:39.769Z,24.29
2016-04-13T06:39:39.786Z,24.39
2016-04-13T06:40:39.822Z,24.49
2016-04-13T06:41:39.855Z,24.29
2016-04-13T06:42:39.873Z,24.01
2016-04-13T06:43:39.907Z,24.49
2016-04-13T06:44:39.941Z,24.39
2016-04-13T06:45:39.960Z,24.29
2016-04-13T06:46:40.181Z,24.49
2016-04-13T06:47:40.215Z,24.49
2016-04-13T06:48:40.327Z,24.39
2016-04-13T06:49:40.345Z,24.49
2016-04-13T06:50:40.286Z,24.49
2016-04-13T06:51:40.319Z,24.29
2016-04-13T06:52:40.322Z,24.19
2016-04-13T06:53:40.371Z,23.81
2016-04-13T06:54:40.312Z,23.91
2016-04-13T06:55:40.299Z,23.81
2016-04-13T06:56:40.365Z,23.71
2016-04-13T06:57:40.398Z,23.81
2016-04-13T06:58:40.416Z,23.71
2016-04-13T06:59:40.341Z,23.81
2016-04-13T07:00:40.375Z,23.91
2016-04-13T07:01:40.409Z,24.01
2016-04-13T07:02:40.443Z,23.91
2016-04-13T07:03:40.461Z,23.91
2016-04-13T07:04:40.495Z,23.81
2016-04-13T07:05:40.514Z,23.81
2016-04-13T07:06:40.547Z,23.81
2016-04-13T07:07:40.581Z,23.81
2016-04-13T07:08:40.630Z,23.81
2016-04-13T07:09:40.633Z,23.71
2016-04-13T07:10:40.667Z,23.81
2016-04-13T07:11:40.685Z,23.71
2016-04-13T07:12:40.719Z,23.91
2016-04-13T07:13:40.738Z,23.91
2016-04-13T07:14:40.788Z,23.91
2016-04-13T07:15:40.791Z,23.81
2016-04-13T07:16:40.839Z,23.91
2016-04-13T07:17:40.842Z,24.01
2016-04-13T07:18:40.892Z,23.81
2016-04-13T07:19:40.910Z,23.91
2016-04-13T07:20:40.945Z,23.91
2016-04-13T07:21:40.994Z,23.91
2016-04-13T07:22:40.997Z,23.91
2016-04-13T07:23:41.031Z,23.91
2016-04-13T07:24:41.049Z,23.91
2016-04-13T07:25:41.068Z,23.81
2016-04-13T07:26:41.085Z,23.91
2016-04-13T07:27:41.135Z,23.91
2016-04-13T07:28:41.185Z,24.01
2016-04-13T07:29:41.187Z,23.91
2016-04-13T07:30:41.206Z,23.91
2016-04-13T07:31:41.254Z,23.91
2016-04-13T07:32:41.273Z,23.91
2016-04-13T07:33:41.292Z,23.91
2016-04-13T07:34:41.325Z,23.91
2016-04-13T07:35:41.345Z,23.91
2016-04-13T07:36:41.362Z,24.01
2016-04-13T07:37:41.412Z,24.01
2016-04-13T07:38:41.431Z,23.91
2016-04-13T07:39:41.448Z,23.91
2016-04-13T07:40:41.483Z,23.91
2016-04-13T07:41:41.517Z,23.71
2016-04-13T07:42:41.550Z,24.01
2016-04-13T07:43:41.569Z,23.81
2016-04-13T07:44:41.586Z,23.71
2016-04-13T07:45:41.652Z,24.01
2016-04-13T07:46:41.655Z,23.81
2016-04-13T07:47:41.672Z,23.81
2016-04-13T07:48:41.707Z,23.81
2016-04-13T07:49:41.725Z,23.81
2016-04-13T07:50:41.760Z,24.01
2016-04-13T07:51:41.809Z,24.29
2016-04-13T07:52:41.843Z,24.29
2016-04-13T07:53:41.861Z,24.29
2016-04-13T07:54:41.863Z,24.19
2016-04-13T07:55:41.898Z,23.81
2016-04-13T07:56:41.932Z,23.71
2016-04-13T07:57:41.949Z,23.91
2016-04-13T07:58:41.985Z,23.91
2016-04-13T07:59:42.018Z,23.91
2016-04-13T08:00:42.037Z,23.81
2016-04-13T08:01:42.071Z,24.1
2016-04-13T08:02:42.104Z,24.01
2016-04-13T08:03:42.107Z,23.81
2016-04-13T08:04:42.140Z,24.1
2016-04-13T08:05:42.175Z,23.81
2016-04-13T08:06:42.209Z,23.81
2016-04-13T08:07:42.242Z,24.01
2016-04-13T08:08:42.187Z,24.1
2016-04-13T08:09:42.299Z,23.71
2016-04-13T08:10:42.317Z,23.91
2016-04-13T08:11:42.336Z,24.01
2016-04-13T08:12:42.369Z,23.81
2016-04-13T08:13:42.405Z,24.01
2016-04-13T08:14:42.422Z,24.01
2016-04-13T08:15:42.456Z,24.01
2016-04-13T08:16:42.522Z,23.81
2016-04-13T08:17:42.383Z,23.81
2016-04-13T08:18:42.527Z,24.1
2016-04-13T08:19:42.577Z,24.29
2016-04-13T08:20:42.594Z,24.19
2016-04-13T08:21:42.613Z,24.1
2016-04-13T08:22:42.647Z,24.29
2016-04-13T08:23:42.682Z,24.29
2016-04-13T08:24:42.716Z,24.1
2016-04-13T08:25:42.733Z,24.1
2016-04-13T08:26:42.752Z,24.01
2016-04-13T08:27:42.817Z,24.19
2016-04-13T08:28:42.804Z,24.29
2016-04-13T08:29:42.838Z,24.19
2016-04-13T08:30:42.887Z,23.91
2016-04-13T08:31:42.890Z,24.29
2016-04-13T08:32:42.923Z,24.49
2016-04-13T08:33:42.942Z,24.49
2016-04-13T08:34:42.976Z,24.49
2016-04-13T08:35:43.009Z,24.49
2016-04-13T08:36:43.029Z,24.39
2016-04-13T08:37:43.062Z,24.39
2016-04-13T08:38:43.097Z,24.58
2016-04-13T08:39:43.099Z,24.39
2016-04-13T08:40:43.148Z,24.39
2016-04-13T08:41:43.151Z,24.39
2016-04-13T08:42:43.216Z,24.01
2016-04-13T08:43:43.250Z,24.02
2016-04-13T08:44:43.252Z,24.19
2016-04-13T08:45:43.286Z,24.19
2016-04-13T08:46:43.305Z,24.19
2016-04-13T08:47:43.339Z,24.19
2016-04-13T08:48:43.374Z,24.19
2016-04-13T08:49:43.408Z,24.19
2016-04-13T08:50:43.425Z,24.68
2016-04-13T08:51:43.444Z,24.68
2016-04-13T08:52:43.477Z,24.49
2016-04-13T08:53:43.496Z,24.19
2016-04-13T08:54:43.515Z,24.1
2016-04-13T08:55:43.549Z,24.49
2016-04-13T08:56:43.583Z,24.49
2016-04-13T08:57:43.601Z,24.29
2016-04-13T08:58:43.651Z,24.49
2016-04-13T08:59:43.653Z,24.49
2016-04-13T09:00:43.687Z,24.19
2016-04-13T09:01:43.737Z,24.1
2016-04-13T09:02:43.754Z,24.29
2016-04-13T09:03:43.773Z,24.19
2016-04-13T09:04:43.791Z,24.29
2016-04-13T09:05:43.840Z,24.49
2016-04-13T09:06:43.890Z,24.49
2016-04-13T09:07:43.893Z,24.39
2016-04-13T09:08:43.911Z,24.49
2016-04-13T09:09:43.945Z,24.49
2016-04-13T09:10:43.979Z,24.1
2016-04-13T09:11:43.997Z,24.39
2016-04-13T09:12:44.031Z,24.49
2016-04-13T09:13:44.066Z,24.49
2016-04-13T09:14:44.069Z,24.49
2016-04-13T09:15:44.102Z,24.58
2016-04-13T09:16:44.183Z,24.68
2016-04-13T09:17:44.169Z,24.68
2016-04-13T09:18:44.188Z,24.58
2016-04-13T09:19:44.378Z,24.69
2016-04-13T09:20:44.272Z,24.58
2016-04-13T09:21:44.275Z,24.6
2016-04-13T09:22:44.308Z,24.68
2016-04-13T09:23:44.389Z,24.69
2016-04-13T09:24:44.423Z,24.78
2016-04-13T09:25:44.457Z,24.68
2016-04-13T09:26:47.522Z,24.78
2016-04-13T09:27:44.447Z,24.4
2016-04-13T09:28:44.482Z,24.39
2016-04-13T09:29:44.499Z,24.4
2016-04-13T09:30:44.533Z,24.39
2016-04-13T09:31:44.551Z,24.88
2016-04-13T09:32:44.570Z,24.88
2016-04-13T09:33:44.603Z,24.97
2016-04-13T09:34:44.622Z,24.97
2016-04-13T09:35:44.671Z,24.87
2016-04-13T09:36:44.720Z,24.78
2016-04-13T09:37:44.709Z,24.78
2016-04-13T09:38:44.742Z,24.79
2016-04-13T09:39:44.761Z,25.08
2016-04-13T09:40:44.794Z,25.08
2016-04-13T09:41:44.844Z,25.07
2016-04-13T09:42:44.847Z,24.79
2016-04-13T09:43:44.880Z,25.07
2016-04-13T09:44:44.758Z,24.79
2016-04-13T09:45:44.917Z,24.78
2016-04-13T09:46:44.950Z,24.87
2016-04-13T09:47:45.000Z,24.88
2016-04-13T09:48:45.019Z,24.79
2016-04-13T09:49:45.053Z,24.88
2016-04-13T09:50:45.072Z,24.88
2016-04-13T09:51:45.105Z,24.88
2016-04-13T09:52:45.124Z,24.88
2016-04-13T09:53:45.173Z,24.78
2016-04-13T09:54:45.197Z,24.78
2016-04-13T09:55:45.063Z,24.79
2016-04-13T09:56:45.238Z,24.88
2016-04-13T09:57:45.272Z,24.78
2016-04-13T09:58:45.416Z,24.79
2016-04-13T09:59:45.324Z,24.87
2016-04-13T10:00:45.364Z,24.79
2016-04-13T10:01:45.367Z,24.98
2016-04-13T10:02:45.402Z,24.78
2016-04-13T10:03:45.452Z,24.78
2016-04-13T10:04:45.476Z,24.87
2016-04-13T10:05:45.354Z,24.87
2016-04-13T10:06:45.512Z,25.08
2016-04-13T10:07:45.625Z,24.78
2016-04-13T10:08:45.564Z,24.69
2016-04-13T10:09:45.583Z,24.79
2016-04-13T10:10:45.617Z,24.87
2016-04-13T10:11:45.651Z,24.88
2016-04-13T10:12:46.325Z,24.87
2016-04-13T10:13:55.859Z,24.88
2016-04-13T10:14:53.722Z,24.88
2016-04-13T10:15:49.224Z,24.79
2016-04-13T10:16:51.447Z,24.69
2016-04-13T10:17:45.808Z,24.69
2016-04-13T10:18:45.842Z,24.78
2016-04-13T10:19:45.876Z,24.88
2016-04-13T10:20:45.925Z,24.79
2016-04-13T10:21:45.944Z,24.79
2016-04-13T10:22:45.853Z,24.78
2016-04-13T10:23:45.980Z,24.88
2016-04-13T10:24:46.014Z,24.88
2016-04-13T10:25:46.033Z,24.69
2016-04-13T10:26:46.051Z,24.98
2016-04-13T10:27:46.085Z,24.88
2016-04-13T10:28:46.135Z,24.79
2016-04-13T10:29:46.185Z,24.79
2016-04-13T10:30:46.178Z,24.79
2016-04-13T10:31:46.228Z,24.79
2016-04-13T10:32:46.059Z,24.97
2016-04-13T10:33:46.186Z,24.88
2016-04-13T10:34:46.283Z,24.88
2016-04-13T10:35:46.301Z,24.79
2016-04-13T10:36:46.335Z,24.97
2016-04-13T10:37:46.634Z,24.79
2016-04-13T10:38:46.401Z,24.88
2016-04-13T10:39:46.435Z,24.98
2016-04-13T10:40:46.453Z,24.69
2016-04-13T10:41:46.487Z,25.08
2016-04-13T10:42:46.506Z,24.79
2016-04-13T10:43:46.524Z,25.36
2016-04-13T10:44:46.558Z,25.08
2016-04-13T10:45:46.575Z,24.88
2016-04-13T10:46:46.610Z,25.18
2016-04-13T10:47:46.628Z,25.18
2016-04-13T10:48:47.006Z,24.87
2016-04-13T10:49:46.696Z,24.97
2016-04-13T10:50:46.730Z,24.87
2016-04-13T10:51:46.748Z,24.98
2016-04-13T10:52:46.844Z,25.07
2016-04-13T10:53:46.800Z,24.97
2016-04-13T10:54:46.975Z,24.98
2016-04-13T10:55:48.025Z,25.18
2016-04-13T10:56:58.730Z,25.26
2016-04-13T10:57:49.905Z,25.16
2016-04-13T10:58:52.658Z,24.97
2016-04-13T10:59:51.221Z,25.16
2016-04-13T11:01:02.782Z,25.16
2016-04-13T11:01:57.767Z,25.16
2016-04-13T11:02:50.627Z,24.97
2016-04-13T11:03:59.127Z,25.16
2016-04-13T11:05:10.094Z,25.07
2016-04-13T11:06:03.103Z,24.98
2016-04-13T11:06:54.291Z,24.97
2016-04-13T11:08:20.733Z,24.97
2016-04-13T11:09:25.877Z,24.97
2016-04-13T11:10:20.115Z,24.97
2016-04-13T11:11:40.031Z,24.88
2016-04-13T11:12:36.164Z,24.97
2016-04-13T11:13:25.703Z,25.07
2016-04-13T11:14:44.601Z,24.97
2016-04-13T11:15:27.219Z,24.88
2016-04-13T11:16:36.818Z,24.97
2016-04-13T11:17:57.417Z,24.88
2016-04-13T11:19:27.957Z,24.87
2016-04-13T11:20:18.525Z,24.97
2016-04-13T11:21:13.415Z,25.07
2016-04-13T11:22:18.390Z,25.07
2016-04-13T11:23:06.906Z,25.18
2016-04-13T11:24:06.956Z,25.07
2016-04-13T11:25:06.976Z,25.26
2016-04-13T11:26:07.010Z,25.07
2016-04-13T11:27:07.060Z,25.26
2016-04-13T11:28:07.063Z,25.16
2016-04-13T11:29:06.941Z,25.07
2016-04-13T11:30:07.133Z,24.97
2016-04-13T11:31:07.136Z,25.07
2016-04-13T11:32:07.185Z,24.97
2016-04-13T11:33:07.202Z,24.87
2016-04-13T11:34:07.222Z,24.88
2016-04-13T11:35:07.255Z,25.16
2016-04-13T11:36:07.305Z,24.88
2016-04-13T11:37:07.324Z,25.07
2016-04-13T11:38:07.341Z,25.26
2016-04-13T11:39:07.360Z,25.26
2016-04-13T11:40:07.409Z,25.26
2016-04-13T11:41:07.412Z,25.07
2016-04-13T11:42:07.477Z,24.88
2016-04-13T11:43:07.526Z,25.26
2016-04-13T11:44:07.498Z,25.07
2016-04-13T11:45:07.532Z,25.26
2016-04-13T11:46:07.925Z,25.26
2016-04-13T11:47:07.804Z,25.07
2016-04-13T11:48:07.915Z,25.07
2016-04-13T11:49:08.043Z,25.07
2016-04-13T11:50:07.890Z,24.97
2016-04-13T11:51:07.954Z,25.07
2016-04-13T11:52:07.941Z,24.97
2016-04-13T11:53:08.037Z,25.26
2016-04-13T11:54:08.056Z,24.97
2016-04-13T11:55:08.012Z,25.07
2016-04-13T11:56:07.921Z,25.07
2016-04-13T11:57:08.064Z,25.16
2016-04-13T11:58:07.973Z,25.07
2016-04-13T11:59:08.522Z,25.26
2016-04-13T12:00:07.947Z,24.97
2016-04-13T12:01:08.091Z,25.26
2016-04-13T12:02:07.984Z,24.78
2016-04-13T12:03:08.143Z,24.68
2016-04-13T12:04:08.161Z,24.78
2016-04-13T12:05:08.149Z,25.16
2016-04-13T12:06:08.136Z,24.98
2016-04-13T12:07:08.263Z,24.97
2016-04-13T12:08:08.173Z,25.07
2016-04-13T12:09:08.644Z,24.87
2016-04-13T12:10:08.225Z,24.78
2016-04-13T12:11:08.353Z,24.87
2016-04-13T12:12:08.278Z,25.07
2016-04-13T12:13:08.342Z,25.07
2016-04-13T12:14:08.502Z,24.97
2016-04-13T12:15:08.489Z,24.87
2016-04-13T12:16:08.383Z,25.07
2016-04-13T12:17:08.572Z,25.18
2016-04-13T12:18:08.435Z,24.79
2016-04-13T12:19:08.687Z,24.58
2016-04-13T12:20:08.502Z,24.68
2016-04-13T12:21:08.599Z,24.58
2016-04-13T12:22:08.554Z,24.87
2016-04-13T12:23:08.635Z,24.78
2016-04-13T12:24:08.607Z,24.58
2016-04-13T12:25:08.718Z,24.78
2016-04-13T12:26:08.659Z,25.07
2016-04-13T12:27:08.740Z,24.78
2016-04-13T12:28:08.712Z,24.97
2016-04-13T12:29:09.073Z,24.68
2016-04-13T12:30:08.795Z,24.68
2016-04-13T12:31:08.891Z,24.79
2016-04-13T12:32:08.831Z,24.78
2016-04-13T12:33:08.944Z,24.87
2016-04-13T12:34:08.884Z,24.58
2016-04-13T12:35:08.981Z,24.78
2016-04-13T12:36:08.936Z,24.58
2016-04-13T12:37:09.078Z,25.07
2016-04-13T12:38:09.004Z,25.07
2016-04-13T12:39:09.116Z,24.58
2016-04-13T12:40:09.040Z,25.07
2016-04-13T12:41:09.168Z,24.68
2016-04-13T12:42:09.093Z,24.97
2016-04-13T12:43:09.298Z,24.68
2016-04-13T12:44:09.161Z,24.78
2016-04-13T12:45:09.272Z,24.97
2016-04-13T12:46:09.260Z,24.97
2016-04-13T12:47:09.309Z,24.78
2016-04-13T12:48:09.265Z,24.79
2016-04-13T12:49:09.393Z,24.97
2016-04-13T12:50:09.317Z,24.68
2016-04-13T12:51:09.414Z,25.07
2016-04-13T12:52:09.386Z,24.78
2016-04-13T12:53:09.450Z,24.97
2016-04-13T12:54:09.437Z,24.87
2016-04-13T12:55:09.518Z,24.78
2016-04-13T12:56:09.474Z,24.78